sensor_id;sensor_type;location;lat;lon;timestamp;pressure;altitude;pressure_sealevel;temperature;humidity
74790;BME280;63318;52.406;13.416;2023-06-19T00:00:02;100997.09;;;16.24;71.90
74790;BME280;63318;52.406;13.416;2023-06-19T00:02:30;100995.83;;;16.22;71.91
74790;BME280;63318;52.406;13.416;2023-06-19T00:04:59;100994.68;;;16.20;72.06
74790;BME280;63318;52.406;13.416;2023-06-19T00:07:27;100995.83;;;16.19;72.06
74790;BME280;63318;52.406;13.416;2023-06-19T00:09:55;100996.57;;;16.18;72.04
74790;BME280;63318;52.406;13.416;2023-06-19T00:12:23;100995.95;;;16.18;72.29
74790;BME280;63318;52.406;13.416;2023-06-19T00:14:51;100997.66;;;16.17;72.29
74790;BME280;63318;52.406;13.416;2023-06-19T00:17:20;100999.69;;;16.16;72.39
74790;BME280;63318;52.406;13.416;2023-06-19T00:19:48;100998.02;;;16.15;72.48
74790;BME280;63318;52.406;13.416;2023-06-19T00:22:16;101005.64;;;16.15;72.53
74790;BME280;63318;52.406;13.416;2023-06-19T00:24:44;101002.05;;;16.15;72.57
74790;BME280;63318;52.406;13.416;2023-06-19T00:27:13;100997.21;;;16.16;72.36
74790;BME280;63318;52.406;13.416;2023-06-19T00:29:41;100996.70;;;16.17;72.42
74790;BME280;63318;52.406;13.416;2023-06-19T00:32:10;100997.64;;;16.19;72.39
74790;BME280;63318;52.406;13.416;2023-06-19T00:34:38;100996.13;;;16.20;72.38
74790;BME280;63318;52.406;13.416;2023-06-19T00:37:07;100994.14;;;16.23;72.42
74790;BME280;63318;52.406;13.416;2023-06-19T00:39:35;100999.20;;;16.26;72.41
74790;BME280;63318;52.406;13.416;2023-06-19T00:42:04;100994.45;;;16.28;72.41
74790;BME280;63318;52.406;13.416;2023-06-19T00:44:32;100994.91;;;16.30;72.47
74790;BME280;63318;52.406;13.416;2023-06-19T00:47:02;100994.09;;;16.32;72.49
74790;BME280;63318;52.406;13.416;2023-06-19T00:49:32;100995.08;;;16.34;72.41
74790;BME280;63318;52.406;13.416;2023-06-19T00:52:00;100999.02;;;16.36;72.51
74790;BME280;63318;52.406;13.416;2023-06-19T00:54:31;101000.00;;;16.37;72.69
74790;BME280;63318;52.406;13.416;2023-06-19T00:57:00;101000.77;;;16.38;72.65
74790;BME280;63318;52.406;13.416;2023-06-19T00:59:28;100998.05;;;16.39;72.74
74790;BME280;63318;52.406;13.416;2023-06-19T01:01:57;100999.05;;;16.40;72.78
74790;BME280;63318;52.406;13.416;2023-06-19T01:04:26;100998.58;;;16.42;72.85
74790;BME280;63318;52.406;13.416;2023-06-19T01:06:59;100995.77;;;16.41;72.75
74790;BME280;63318;52.406;13.416;2023-06-19T01:09:33;100989.66;;;16.42;72.80
74790;BME280;63318;52.406;13.416;2023-06-19T01:12:08;100988.05;;;16.42;72.91
74790;BME280;63318;52.406;13.416;2023-06-19T01:14:42;100988.55;;;16.41;72.98
74790;BME280;63318;52.406;13.416;2023-06-19T01:17:15;100986.15;;;16.40;73.00
74790;BME280;63318;52.406;13.416;2023-06-19T01:19:43;100983.20;;;16.39;72.99
74790;BME280;63318;52.406;13.416;2023-06-19T01:22:17;100983.11;;;16.37;73.06
74790;BME280;63318;52.406;13.416;2023-06-19T01:24:49;100978.61;;;16.36;73.35
74790;BME280;63318;52.406;13.416;2023-06-19T01:27:18;100981.16;;;16.33;73.43
74790;BME280;63318;52.406;13.416;2023-06-19T01:29:46;100982.84;;;16.30;73.49
74790;BME280;63318;52.406;13.416;2023-06-19T01:32:17;100978.86;;;16.27;73.54
74790;BME280;63318;52.406;13.416;2023-06-19T01:34:47;100980.67;;;16.23;73.43
74790;BME280;63318;52.406;13.416;2023-06-19T01:37:16;100979.27;;;16.20;73.63
74790;BME280;63318;52.406;13.416;2023-06-19T01:39:46;100978.82;;;16.16;73.78
74790;BME280;63318;52.406;13.416;2023-06-19T01:42:16;100984.11;;;16.13;73.92
74790;BME280;63318;52.406;13.416;2023-06-19T01:44:45;100977.42;;;16.09;73.87
74790;BME280;63318;52.406;13.416;2023-06-19T01:47:13;100977.76;;;16.06;74.14
74790;BME280;63318;52.406;13.416;2023-06-19T01:49:41;100970.80;;;16.03;74.05
74790;BME280;63318;52.406;13.416;2023-06-19T01:52:10;100964.90;;;16.01;73.99
74790;BME280;63318;52.406;13.416;2023-06-19T01:54:38;100955.90;;;15.99;74.24
74790;BME280;63318;52.406;13.416;2023-06-19T01:57:07;100955.02;;;15.98;74.27
74790;BME280;63318;52.406;13.416;2023-06-19T01:59:36;100953.75;;;15.97;74.30
74790;BME280;63318;52.406;13.416;2023-06-19T02:02:04;100954.77;;;15.97;74.26
74790;BME280;63318;52.406;13.416;2023-06-19T02:04:33;100952.88;;;15.96;74.29
74790;BME280;63318;52.406;13.416;2023-06-19T02:07:01;100950.92;;;15.95;74.40
74790;BME280;63318;52.406;13.416;2023-06-19T02:09:29;100947.38;;;15.95;74.53
74790;BME280;63318;52.406;13.416;2023-06-19T02:11:57;100942.75;;;15.94;74.63
74790;BME280;63318;52.406;13.416;2023-06-19T02:14:26;100940.61;;;15.92;74.93
74790;BME280;63318;52.406;13.416;2023-06-19T02:16:54;100940.81;;;15.90;74.94
74790;BME280;63318;52.406;13.416;2023-06-19T02:19:22;100939.78;;;15.88;75.03
74790;BME280;63318;52.406;13.416;2023-06-19T02:21:50;100940.79;;;15.84;75.08
74790;BME280;63318;52.406;13.416;2023-06-19T02:24:18;100943.31;;;15.81;75.22
74790;BME280;63318;52.406;13.416;2023-06-19T02:26:47;100938.14;;;15.78;75.43
74790;BME280;63318;52.406;13.416;2023-06-19T02:29:15;100935.84;;;15.75;75.38
74790;BME280;63318;52.406;13.416;2023-06-19T02:31:43;100932.32;;;15.71;75.52
74790;BME280;63318;52.406;13.416;2023-06-19T02:34:12;100929.64;;;15.67;75.52
74790;BME280;63318;52.406;13.416;2023-06-19T02:36:40;100930.36;;;15.63;75.49
74790;BME280;63318;52.406;13.416;2023-06-19T02:39:09;100932.94;;;15.59;75.44
74790;BME280;63318;52.406;13.416;2023-06-19T02:41:38;100933.09;;;15.57;75.53
74790;BME280;63318;52.406;13.416;2023-06-19T02:44:06;100931.38;;;15.55;75.58
74790;BME280;63318;52.406;13.416;2023-06-19T02:46:34;100930.39;;;15.53;75.61
74790;BME280;63318;52.406;13.416;2023-06-19T02:49:02;100927.85;;;15.51;75.66
74790;BME280;63318;52.406;13.416;2023-06-19T02:51:31;100930.05;;;15.50;75.70
74790;BME280;63318;52.406;13.416;2023-06-19T02:53:59;100928.86;;;15.48;75.69
74790;BME280;63318;52.406;13.416;2023-06-19T02:56:27;100928.21;;;15.47;75.86
74790;BME280;63318;52.406;13.416;2023-06-19T02:58:55;100929.67;;;15.45;76.05
74790;BME280;63318;52.406;13.416;2023-06-19T03:01:24;100928.45;;;15.44;76.07
74790;BME280;63318;52.406;13.416;2023-06-19T03:03:52;100923.55;;;15.41;76.12
74790;BME280;63318;52.406;13.416;2023-06-19T03:06:20;100924.81;;;15.39;76.17
74790;BME280;63318;52.406;13.416;2023-06-19T03:08:48;100925.16;;;15.38;76.22
74790;BME280;63318;52.406;13.416;2023-06-19T03:11:17;100924.96;;;15.36;76.20
74790;BME280;63318;52.406;13.416;2023-06-19T03:13:49;100924.02;;;15.35;76.48
74790;BME280;63318;52.406;13.416;2023-06-19T03:16:18;100924.42;;;15.35;76.39
74790;BME280;63318;52.406;13.416;2023-06-19T03:18:47;100925.42;;;15.35;76.28
74790;BME280;63318;52.406;13.416;2023-06-19T03:21:16;100930.39;;;15.37;76.13
74790;BME280;63318;52.406;13.416;2023-06-19T03:23:44;100930.75;;;15.39;76.16
74790;BME280;63318;52.406;13.416;2023-06-19T03:26:13;100934.75;;;15.41;76.08
74790;BME280;63318;52.406;13.416;2023-06-19T03:28:41;100939.99;;;15.44;76.23
74790;BME280;63318;52.406;13.416;2023-06-19T03:31:09;100944.48;;;15.48;76.14
74790;BME280;63318;52.406;13.416;2023-06-19T03:33:37;100945.17;;;15.51;76.29
74790;BME280;63318;52.406;13.416;2023-06-19T03:36:06;100946.69;;;15.54;76.38
74790;BME280;63318;52.406;13.416;2023-06-19T03:38:35;100946.52;;;15.58;76.59
74790;BME280;63318;52.406;13.416;2023-06-19T03:41:03;100945.63;;;15.61;76.61
74790;BME280;63318;52.406;13.416;2023-06-19T03:43:31;100943.12;;;15.64;76.62
74790;BME280;63318;52.406;13.416;2023-06-19T03:46:00;100944.63;;;15.68;76.47
74790;BME280;63318;52.406;13.416;2023-06-19T03:48:28;100950.16;;;15.72;76.27
74790;BME280;63318;52.406;13.416;2023-06-19T03:50:56;100958.08;;;15.76;76.13
74790;BME280;63318;52.406;13.416;2023-06-19T03:53:24;100957.11;;;15.79;76.14
74790;BME280;63318;52.406;13.416;2023-06-19T03:55:53;100955.27;;;15.83;76.07
74790;BME280;63318;52.406;13.416;2023-06-19T03:58:21;100955.14;;;15.87;76.02
74790;BME280;63318;52.406;13.416;2023-06-19T04:00:49;100951.77;;;15.91;75.81
74790;BME280;63318;52.406;13.416;2023-06-19T04:03:17;100949.07;;;15.95;75.87
74790;BME280;63318;52.406;13.416;2023-06-19T04:05:46;100944.23;;;16.00;75.72
74790;BME280;63318;52.406;13.416;2023-06-19T04:08:15;100942.04;;;16.04;75.76
74790;BME280;63318;52.406;13.416;2023-06-19T04:10:43;100939.84;;;16.08;75.76
74790;BME280;63318;52.406;13.416;2023-06-19T04:13:12;100934.01;;;16.12;75.63
74790;BME280;63318;52.406;13.416;2023-06-19T04:15:41;100929.95;;;16.16;75.63
74790;BME280;63318;52.406;13.416;2023-06-19T04:18:09;100924.39;;;16.20;75.59
74790;BME280;63318;52.406;13.416;2023-06-19T04:20:37;100919.38;;;16.24;75.49
74790;BME280;63318;52.406;13.416;2023-06-19T04:23:05;100919.17;;;16.28;75.60
74790;BME280;63318;52.406;13.416;2023-06-19T04:25:34;100919.99;;;16.33;75.57
74790;BME280;63318;52.406;13.416;2023-06-19T04:28:02;100922.90;;;16.37;75.42
74790;BME280;63318;52.406;13.416;2023-06-19T04:30:31;100922.43;;;16.41;75.50
74790;BME280;63318;52.406;13.416;2023-06-19T04:33:00;100928.23;;;16.45;75.52
74790;BME280;63318;52.406;13.416;2023-06-19T04:35:28;100928.10;;;16.49;75.64
74790;BME280;63318;52.406;13.416;2023-06-19T04:37:56;100928.37;;;16.55;75.61
74790;BME280;63318;52.406;13.416;2023-06-19T04:40:25;100932.59;;;16.60;75.64
74790;BME280;63318;52.406;13.416;2023-06-19T04:42:53;100936.52;;;16.65;75.64
74790;BME280;63318;52.406;13.416;2023-06-19T04:45:21;100941.55;;;16.69;75.48
74790;BME280;63318;52.406;13.416;2023-06-19T04:47:50;100944.10;;;16.74;75.38
74790;BME280;63318;52.406;13.416;2023-06-19T04:50:18;100942.51;;;16.78;75.34
74790;BME280;63318;52.406;13.416;2023-06-19T04:52:47;100943.77;;;16.83;75.11
74790;BME280;63318;52.406;13.416;2023-06-19T04:55:15;100941.02;;;16.87;75.04
74790;BME280;63318;52.406;13.416;2023-06-19T04:57:43;100944.36;;;16.92;75.23
74790;BME280;63318;52.406;13.416;2023-06-19T05:00:13;100950.23;;;16.96;75.24
74790;BME280;63318;52.406;13.416;2023-06-19T05:02:41;100954.20;;;17.00;75.46
74790;BME280;63318;52.406;13.416;2023-06-19T05:05:10;100958.00;;;17.03;75.27
74790;BME280;63318;52.406;13.416;2023-06-19T05:07:38;100961.09;;;17.06;75.24
74790;BME280;63318;52.406;13.416;2023-06-19T05:10:09;100963.63;;;17.10;75.42
74790;BME280;63318;52.406;13.416;2023-06-19T05:12:38;100963.45;;;17.13;75.43
74790;BME280;63318;52.406;13.416;2023-06-19T05:15:08;100962.48;;;17.16;75.17
74790;BME280;63318;52.406;13.416;2023-06-19T05:17:36;100967.45;;;17.20;75.04
74790;BME280;63318;52.406;13.416;2023-06-19T05:20:06;100965.84;;;17.26;75.01
74790;BME280;63318;52.406;13.416;2023-06-19T05:22:35;100970.58;;;17.30;75.22
74790;BME280;63318;52.406;13.416;2023-06-19T05:25:04;100977.89;;;17.34;75.16
74790;BME280;63318;52.406;13.416;2023-06-19T05:27:32;100974.24;;;17.40;75.08
74790;BME280;63318;52.406;13.416;2023-06-19T05:30:01;100972.90;;;17.44;74.99
74790;BME280;63318;52.406;13.416;2023-06-19T05:32:30;100972.14;;;17.49;74.89
74790;BME280;63318;52.406;13.416;2023-06-19T05:34:58;100975.30;;;17.54;74.68
74790;BME280;63318;52.406;13.416;2023-06-19T05:37:27;100973.80;;;17.61;74.55
74790;BME280;63318;52.406;13.416;2023-06-19T05:39:55;100966.98;;;17.66;74.48
74790;BME280;63318;52.406;13.416;2023-06-19T05:42:24;100969.27;;;17.72;74.48
74790;BME280;63318;52.406;13.416;2023-06-19T05:44:52;100969.45;;;17.78;74.55
74790;BME280;63318;52.406;13.416;2023-06-19T05:47:20;100967.05;;;17.85;74.54
74790;BME280;63318;52.406;13.416;2023-06-19T05:49:48;100969.56;;;17.90;74.32
74790;BME280;63318;52.406;13.416;2023-06-19T05:52:17;100969.47;;;17.96;74.26
74790;BME280;63318;52.406;13.416;2023-06-19T05:54:45;100967.75;;;18.03;74.31
74790;BME280;63318;52.406;13.416;2023-06-19T05:57:13;100965.55;;;18.10;74.31
74790;BME280;63318;52.406;13.416;2023-06-19T05:59:42;100963.27;;;18.18;74.39
74790;BME280;63318;52.406;13.416;2023-06-19T06:02:10;100962.17;;;18.26;74.27
74790;BME280;63318;52.406;13.416;2023-06-19T06:04:38;100957.15;;;18.32;74.16
74790;BME280;63318;52.406;13.416;2023-06-19T06:07:07;100955.97;;;18.39;74.14
74790;BME280;63318;52.406;13.416;2023-06-19T06:09:35;100956.16;;;18.45;73.97
74790;BME280;63318;52.406;13.416;2023-06-19T06:12:05;100961.20;;;18.50;73.70
74790;BME280;63318;52.406;13.416;2023-06-19T06:14:33;100963.29;;;18.57;73.69
74790;BME280;63318;52.406;13.416;2023-06-19T06:17:01;100963.98;;;18.62;73.44
74790;BME280;63318;52.406;13.416;2023-06-19T06:19:30;100961.86;;;18.67;73.40
74790;BME280;63318;52.406;13.416;2023-06-19T06:21:58;100965.30;;;18.73;73.24
74790;BME280;63318;52.406;13.416;2023-06-19T06:24:26;100964.05;;;18.79;73.30
74790;BME280;63318;52.406;13.416;2023-06-19T06:26:55;100965.46;;;18.84;73.18
74790;BME280;63318;52.406;13.416;2023-06-19T06:29:23;100960.84;;;18.90;72.95
74790;BME280;63318;52.406;13.416;2023-06-19T06:31:51;100961.86;;;18.96;72.92
74790;BME280;63318;52.406;13.416;2023-06-19T06:34:19;100965.43;;;19.01;72.74
74790;BME280;63318;52.406;13.416;2023-06-19T06:36:47;100969.80;;;19.06;72.38
74790;BME280;63318;52.406;13.416;2023-06-19T06:39:16;100973.06;;;19.12;72.29
74790;BME280;63318;52.406;13.416;2023-06-19T06:41:44;100972.53;;;19.19;72.10
74790;BME280;63318;52.406;13.416;2023-06-19T06:44:12;100974.90;;;19.24;72.12
74790;BME280;63318;52.406;13.416;2023-06-19T06:46:40;100977.99;;;19.29;71.92
74790;BME280;63318;52.406;13.416;2023-06-19T06:49:09;100981.50;;;19.36;71.92
74790;BME280;63318;52.406;13.416;2023-06-19T06:51:37;100977.88;;;19.43;71.56
74790;BME280;63318;52.406;13.416;2023-06-19T06:54:06;100980.56;;;19.49;71.38
74790;BME280;63318;52.406;13.416;2023-06-19T06:56:34;100981.08;;;19.56;71.42
74790;BME280;63318;52.406;13.416;2023-06-19T06:59:02;100978.37;;;19.61;70.95
74790;BME280;63318;52.406;13.416;2023-06-19T07:01:31;100977.79;;;19.67;70.75
74790;BME280;63318;52.406;13.416;2023-06-19T07:03:59;100977.77;;;19.73;70.59
74790;BME280;63318;52.406;13.416;2023-06-19T07:06:27;100978.73;;;19.80;70.47
74790;BME280;63318;52.406;13.416;2023-06-19T07:08:55;100981.55;;;19.87;70.16
74790;BME280;63318;52.406;13.416;2023-06-19T07:11:24;100984.22;;;19.95;70.22
74790;BME280;63318;52.406;13.416;2023-06-19T07:13:52;100982.66;;;20.03;69.81
74790;BME280;63318;52.406;13.416;2023-06-19T07:16:20;100980.07;;;20.12;69.45
74790;BME280;63318;52.406;13.416;2023-06-19T07:18:48;100980.35;;;20.21;69.07
74790;BME280;63318;52.406;13.416;2023-06-19T07:21:19;100981.12;;;20.30;68.99
74790;BME280;63318;52.406;13.416;2023-06-19T07:23:48;100979.05;;;20.40;68.68
74790;BME280;63318;52.406;13.416;2023-06-19T07:26:17;100982.20;;;20.50;68.58
74790;BME280;63318;52.406;13.416;2023-06-19T07:28:45;100983.73;;;20.61;68.11
74790;BME280;63318;52.406;13.416;2023-06-19T07:31:13;100981.60;;;20.72;67.76
74790;BME280;63318;52.406;13.416;2023-06-19T07:33:41;100981.74;;;20.85;67.52
74790;BME280;63318;52.406;13.416;2023-06-19T07:36:10;100984.86;;;20.97;67.27
74790;BME280;63318;52.406;13.416;2023-06-19T07:38:39;100982.82;;;21.11;66.93
74790;BME280;63318;52.406;13.416;2023-06-19T07:41:08;100980.55;;;21.24;66.60
74790;BME280;63318;52.406;13.416;2023-06-19T07:43:36;100981.45;;;21.37;66.28
74790;BME280;63318;52.406;13.416;2023-06-19T07:46:05;100984.41;;;21.51;65.84
74790;BME280;63318;52.406;13.416;2023-06-19T07:48:34;100985.09;;;21.63;65.65
74790;BME280;63318;52.406;13.416;2023-06-19T07:51:02;100988.05;;;21.76;65.65
74790;BME280;63318;52.406;13.416;2023-06-19T07:53:30;100982.25;;;21.88;65.30
74790;BME280;63318;52.406;13.416;2023-06-19T07:55:59;100984.25;;;22.02;64.82
74790;BME280;63318;52.406;13.416;2023-06-19T07:58:30;100985.56;;;22.15;64.61
74790;BME280;63318;52.406;13.416;2023-06-19T08:00:58;100985.33;;;22.28;64.18
74790;BME280;63318;52.406;13.416;2023-06-19T08:03:28;100983.18;;;22.40;63.59
74790;BME280;63318;52.406;13.416;2023-06-19T08:05:56;100983.48;;;22.54;63.43
74790;BME280;63318;52.406;13.416;2023-06-19T08:08:24;100982.48;;;22.68;63.44
74790;BME280;63318;52.406;13.416;2023-06-19T08:10:53;100983.50;;;22.82;62.98
74790;BME280;63318;52.406;13.416;2023-06-19T08:13:21;100980.41;;;22.96;62.75
74790;BME280;63318;52.406;13.416;2023-06-19T08:15:49;100981.77;;;23.09;62.34
74790;BME280;63318;52.406;13.416;2023-06-19T08:18:18;100983.68;;;23.20;61.50
74790;BME280;63318;52.406;13.416;2023-06-19T08:20:46;100986.97;;;23.28;61.31
74790;BME280;63318;52.406;13.416;2023-06-19T08:23:15;100983.40;;;23.37;61.17
74790;BME280;63318;52.406;13.416;2023-06-19T08:25:43;100984.52;;;23.46;61.24
74790;BME280;63318;52.406;13.416;2023-06-19T08:28:12;100987.47;;;23.55;60.89
74790;BME280;63318;52.406;13.416;2023-06-19T08:30:41;100988.11;;;23.62;60.24
74790;BME280;63318;52.406;13.416;2023-06-19T08:33:09;100990.91;;;23.66;60.00
74790;BME280;63318;52.406;13.416;2023-06-19T08:35:38;100990.05;;;23.69;59.75
74790;BME280;63318;52.406;13.416;2023-06-19T08:38:06;100996.19;;;23.71;59.45
74790;BME280;63318;52.406;13.416;2023-06-19T08:40:35;100991.33;;;23.71;60.45
74790;BME280;63318;52.406;13.416;2023-06-19T08:43:03;100987.11;;;23.73;60.19
74790;BME280;63318;52.406;13.416;2023-06-19T08:45:32;100981.23;;;23.74;59.49
74790;BME280;63318;52.406;13.416;2023-06-19T08:48:01;100978.67;;;23.76;59.26
74790;BME280;63318;52.406;13.416;2023-06-19T08:50:29;100980.05;;;23.78;59.09
74790;BME280;63318;52.406;13.416;2023-06-19T08:52:58;100980.55;;;23.82;59.29
74790;BME280;63318;52.406;13.416;2023-06-19T08:55:27;100976.88;;;23.86;59.21
74790;BME280;63318;52.406;13.416;2023-06-19T08:57:55;100978.67;;;23.91;59.09
74790;BME280;63318;52.406;13.416;2023-06-19T09:00:28;100979.47;;;23.96;58.98
74790;BME280;63318;52.406;13.416;2023-06-19T09:03:02;100976.45;;;24.00;58.52
74790;BME280;63318;52.406;13.416;2023-06-19T09:05:31;100976.31;;;24.06;58.63
74790;BME280;63318;52.406;13.416;2023-06-19T09:08:00;100979.46;;;24.10;58.51
74790;BME280;63318;52.406;13.416;2023-06-19T09:10:28;100983.64;;;24.14;58.22
74790;BME280;63318;52.406;13.416;2023-06-19T09:13:02;100986.96;;;24.20;58.29
74790;BME280;63318;52.406;13.416;2023-06-19T09:15:31;100988.61;;;24.24;58.48
74790;BME280;63318;52.406;13.416;2023-06-19T09:18:09;100988.09;;;24.27;57.92
74790;BME280;63318;52.406;13.416;2023-06-19T09:20:39;100985.47;;;24.32;57.37
74790;BME280;63318;52.406;13.416;2023-06-19T09:23:07;100987.20;;;24.36;57.32
74790;BME280;63318;52.406;13.416;2023-06-19T09:25:46;100984.60;;;24.39;56.77
74790;BME280;63318;52.406;13.416;2023-06-19T09:28:21;100987.10;;;24.40;56.45
74790;BME280;63318;52.406;13.416;2023-06-19T09:31:00;100986.24;;;24.42;56.93
74790;BME280;63318;52.406;13.416;2023-06-19T09:33:30;100982.58;;;24.44;57.12
74790;BME280;63318;52.406;13.416;2023-06-19T09:36:00;100987.60;;;24.47;57.15
74790;BME280;63318;52.406;13.416;2023-06-19T09:38:30;100989.22;;;24.49;56.92
74790;BME280;63318;52.406;13.416;2023-06-19T09:41:02;100997.98;;;24.52;56.96
74790;BME280;63318;52.406;13.416;2023-06-19T09:43:35;100999.13;;;24.55;56.98
74790;BME280;63318;52.406;13.416;2023-06-19T09:46:06;100998.26;;;24.58;57.30
74790;BME280;63318;52.406;13.416;2023-06-19T09:48:41;100999.91;;;24.62;57.22
74790;BME280;63318;52.406;13.416;2023-06-19T09:51:12;101007.09;;;24.66;57.46
74790;BME280;63318;52.406;13.416;2023-06-19T09:53:42;101001.98;;;24.69;57.00
74790;BME280;63318;52.406;13.416;2023-06-19T09:56:12;100998.86;;;24.71;57.15
74790;BME280;63318;52.406;13.416;2023-06-19T09:58:40;100991.23;;;24.74;57.07
74790;BME280;63318;52.406;13.416;2023-06-19T10:01:10;100985.52;;;24.78;56.45
74790;BME280;63318;52.406;13.416;2023-06-19T10:03:39;100975.93;;;24.80;56.17
74790;BME280;63318;52.406;13.416;2023-06-19T10:06:12;100975.53;;;24.84;55.59
74790;BME280;63318;52.406;13.416;2023-06-19T10:08:42;100970.45;;;24.88;55.74
74790;BME280;63318;52.406;13.416;2023-06-19T10:11:11;100968.90;;;24.91;55.67
74790;BME280;63318;52.406;13.416;2023-06-19T10:13:41;100964.54;;;24.92;55.08
74790;BME280;63318;52.406;13.416;2023-06-19T10:16:21;100960.87;;;24.91;54.84
74790;BME280;63318;52.406;13.416;2023-06-19T10:18:50;100956.31;;;24.91;54.77
74790;BME280;63318;52.406;13.416;2023-06-19T10:21:19;100954.64;;;24.92;54.57
74790;BME280;63318;52.406;13.416;2023-06-19T10:23:56;100954.64;;;24.95;54.39
74790;BME280;63318;52.406;13.416;2023-06-19T10:26:33;100955.84;;;25.00;54.40
74790;BME280;63318;52.406;13.416;2023-06-19T10:29:06;100955.04;;;25.07;54.30
74790;BME280;63318;52.406;13.416;2023-06-19T10:31:41;100958.57;;;25.15;54.38
74790;BME280;63318;52.406;13.416;2023-06-19T10:34:09;100956.66;;;25.22;53.89
74790;BME280;63318;52.406;13.416;2023-06-19T10:36:38;100953.09;;;25.29;53.47
74790;BME280;63318;52.406;13.416;2023-06-19T10:39:06;100949.16;;;25.37;53.46
74790;BME280;63318;52.406;13.416;2023-06-19T10:41:35;100940.90;;;25.44;52.81
74790;BME280;63318;52.406;13.416;2023-06-19T10:44:05;100943.23;;;25.49;52.70
74790;BME280;63318;52.406;13.416;2023-06-19T10:46:35;100938.48;;;25.55;52.78
74790;BME280;63318;52.406;13.416;2023-06-19T10:49:05;100936.64;;;25.63;52.94
74790;BME280;63318;52.406;13.416;2023-06-19T10:51:35;100926.96;;;25.70;52.98
74790;BME280;63318;52.406;13.416;2023-06-19T10:54:05;100923.47;;;25.78;52.09
74790;BME280;63318;52.406;13.416;2023-06-19T10:56:33;100926.72;;;25.84;51.81
74790;BME280;63318;52.406;13.416;2023-06-19T10:59:08;100924.26;;;25.91;52.04
74790;BME280;63318;52.406;13.416;2023-06-19T11:01:38;100923.47;;;26.03;51.63
74790;BME280;63318;52.406;13.416;2023-06-19T11:04:08;100928.80;;;26.14;51.13
74790;BME280;63318;52.406;13.416;2023-06-19T11:06:38;100928.64;;;26.23;50.60
74790;BME280;63318;52.406;13.416;2023-06-19T11:09:07;100920.22;;;26.33;50.80
74790;BME280;63318;52.406;13.416;2023-06-19T11:11:41;100919.75;;;26.46;50.96
74790;BME280;63318;52.406;13.416;2023-06-19T11:14:10;100917.61;;;26.57;50.38
74790;BME280;63318;52.406;13.416;2023-06-19T11:16:42;100912.38;;;26.68;50.49
74790;BME280;63318;52.406;13.416;2023-06-19T11:19:15;100910.39;;;26.78;50.23
74790;BME280;63318;52.406;13.416;2023-06-19T11:21:47;100906.39;;;26.82;49.48
74790;BME280;63318;52.406;13.416;2023-06-19T11:24:16;100911.49;;;26.85;49.16
74790;BME280;63318;52.406;13.416;2023-06-19T11:26:46;100909.60;;;26.88;49.41
74790;BME280;63318;52.406;13.416;2023-06-19T11:29:20;100905.93;;;26.94;49.03
74790;BME280;63318;52.406;13.416;2023-06-19T11:31:49;100901.61;;;26.93;48.38
74790;BME280;63318;52.406;13.416;2023-06-19T11:34:19;100901.72;;;26.90;48.56
74790;BME280;63318;52.406;13.416;2023-06-19T11:36:47;100904.20;;;26.87;48.34
74790;BME280;63318;52.406;13.416;2023-06-19T11:39:16;100903.84;;;26.86;47.95
74790;BME280;63318;52.406;13.416;2023-06-19T11:41:45;100902.33;;;26.83;48.13
74790;BME280;63318;52.406;13.416;2023-06-19T11:44:14;100907.35;;;26.81;47.83
74790;BME280;63318;52.406;13.416;2023-06-19T11:46:43;100909.08;;;26.78;47.78
74790;BME280;63318;52.406;13.416;2023-06-19T11:49:13;100911.77;;;26.78;47.66
74790;BME280;63318;52.406;13.416;2023-06-19T11:51:42;100912.44;;;26.78;47.80
74790;BME280;63318;52.406;13.416;2023-06-19T11:54:12;100912.95;;;26.79;47.95
74790;BME280;63318;52.406;13.416;2023-06-19T11:56:41;100913.33;;;26.83;47.76
74790;BME280;63318;52.406;13.416;2023-06-19T11:59:09;100913.00;;;26.87;47.62
74790;BME280;63318;52.406;13.416;2023-06-19T12:01:38;100910.85;;;26.90;47.66
74790;BME280;63318;52.406;13.416;2023-06-19T12:04:06;100911.62;;;26.97;47.43
74790;BME280;63318;52.406;13.416;2023-06-19T12:06:35;100909.82;;;27.06;47.50
74790;BME280;63318;52.406;13.416;2023-06-19T12:09:03;100905.02;;;27.16;47.29
74790;BME280;63318;52.406;13.416;2023-06-19T12:11:32;100904.90;;;27.28;47.31
74790;BME280;63318;52.406;13.416;2023-06-19T12:14:01;100901.77;;;27.40;47.24
74790;BME280;63318;52.406;13.416;2023-06-19T12:16:29;100898.05;;;27.57;47.00
74790;BME280;63318;52.406;13.416;2023-06-19T12:18:58;100899.02;;;27.74;46.67
74790;BME280;63318;52.406;13.416;2023-06-19T12:21:26;100897.44;;;27.89;46.15
74790;BME280;63318;52.406;13.416;2023-06-19T12:23:54;100887.33;;;28.06;45.75
74790;BME280;63318;52.406;13.416;2023-06-19T12:26:23;100888.67;;;28.29;46.20
74790;BME280;63318;52.406;13.416;2023-06-19T12:28:52;100886.63;;;28.50;46.05
74790;BME280;63318;52.406;13.416;2023-06-19T12:31:20;100888.63;;;28.69;45.47
74790;BME280;63318;52.406;13.416;2023-06-19T12:33:48;100889.64;;;28.86;44.29
74790;BME280;63318;52.406;13.416;2023-06-19T12:36:17;100894.82;;;28.98;44.68
74790;BME280;63318;52.406;13.416;2023-06-19T12:38:45;100886.81;;;29.10;44.18
74790;BME280;63318;52.406;13.416;2023-06-19T12:41:13;100888.52;;;29.22;44.15
74790;BME280;63318;52.406;13.416;2023-06-19T12:43:42;100891.11;;;29.32;44.31
74790;BME280;63318;52.406;13.416;2023-06-19T12:46:10;100888.50;;;29.44;43.91
74790;BME280;63318;52.406;13.416;2023-06-19T12:48:38;100883.04;;;29.56;43.81